Time;durP1;ratioP1;P1;durP2;ratioP2;P2;SDS_P1;SDS_P2;PMS_P1;PMS_P2;Temp;Humidity;BMP_temperature;BMP_pressure;BME280_temperature;BME280_humidity;BME280_pressure;Samples;Min_cycle;Max_cycle;Signal;HPM_P1;HPM_P2
2021/08/31 00:00:47;;;;;;;12.47;9.40;;;;;;;14.32;100.00;97033.03;5039538;28;20209;-65
2021/08/31 00:03:13;;;;;;;14.37;9.87;;;;;;;14.38;100.00;97032.09;5048789;28;20174;-65
2021/08/31 00:05:38;;;;;;;13.60;10.00;;;;;;;14.29;100.00;97030.09;5045825;28;20174;-70
2021/08/31 00:08:04;;;;;;;13.47;8.90;;;;;;;14.27;100.00;97034.81;5038367;28;20224;-64
2021/08/31 00:10:30;;;;;;;11.03;8.73;;;;;;;14.42;100.00;97032.44;5049594;28;20190;-65
2021/08/31 00:12:55;;;;;;;10.27;8.33;;;;;;;14.20;100.00;97039.47;5038271;28;20195;-65
2021/08/31 00:15:21;;;;;;;13.87;9.07;;;;;;;13.97;100.00;97032.56;5048438;28;20209;-65
2021/08/31 00:17:46;;;;;;;9.73;8.33;;;;;;;14.22;100.00;97021.56;5035755;28;20232;-65
2021/08/31 00:20:12;;;;;;;11.33;7.53;;;;;;;14.02;100.00;97033.44;5040362;28;20219;-68
2021/08/31 00:22:37;;;;;;;12.67;9.47;;;;;;;14.08;100.00;97036.94;5046543;28;20190;-64
2021/08/31 00:25:07;;;;;;;11.07;8.30;;;;;;;13.99;100.00;97036.53;5034300;28;20248;-65
2021/08/31 00:27:33;;;;;;;9.43;7.53;;;;;;;14.20;100.00;97029.75;5046913;28;20285;-65
2021/08/31 00:29:59;;;;;;;10.10;7.70;;;;;;;14.33;100.00;97037.28;5038522;28;20715;-65
2021/08/31 00:32:24;;;;;;;9.97;8.20;;;;;;;14.21;100.00;97035.81;5041252;28;20186;-67
2021/08/31 00:34:51;;;;;;;13.10;9.00;;;;;;;14.07;100.00;97030.06;5045119;28;20194;-64
2021/08/31 00:37:16;;;;;;;9.67;7.47;;;;;;;14.14;100.00;97028.88;5031787;28;20178;-65
2021/08/31 00:39:41;;;;;;;9.87;7.77;;;;;;;14.30;100.00;97032.50;5040200;28;20255;-69
2021/08/31 00:42:07;;;;;;;11.37;8.07;;;;;;;14.46;100.00;97034.31;5041134;28;20275;-65
2021/08/31 00:44:32;;;;;;;11.07;8.70;;;;;;;14.31;100.00;97030.66;5032928;28;20190;-66
2021/08/31 00:47:05;;;;;;;11.57;8.77;;;;;;;14.36;100.00;97036.00;5050079;28;20195;-65
2021/08/31 00:49:31;;;;;;;12.03;9.03;;;;;;;14.44;100.00;97038.22;5052504;28;20177;-65
2021/08/31 00:51:58;;;;;;;10.13;7.73;;;;;;;14.50;100.00;97042.53;5051530;28;20665;-65
2021/08/31 00:54:27;;;;;;;12.03;8.57;;;;;;;14.36;100.00;97044.72;5039329;28;20660;-65
2021/08/31 00:56:54;;;;;;;12.07;9.23;;;;;;;14.41;100.00;97031.63;5047981;28;20694;-65
2021/08/31 00:59:23;;;;;;;13.60;9.07;;;;;;;14.41;100.00;97051.94;5038448;28;20197;-65
2021/08/31 01:01:58;;;;;;;14.43;9.33;;;;;;;14.43;100.00;97045.34;5032343;28;20171;-65
2021/08/31 01:04:24;;;;;;;11.87;8.87;;;;;;;14.48;100.00;97042.81;5045011;28;20185;-65
2021/08/31 01:06:53;;;;;;;12.40;9.17;;;;;;;14.44;100.00;97046.16;5033620;28;20197;-66
2021/08/31 01:09:25;;;;;;;15.23;9.43;;;;;;;14.56;100.00;97049.47;5019817;28;20178;-65
2021/08/31 01:11:55;;;;;;;11.30;9.23;;;;;;;14.56;100.00;97049.47;5048683;28;20178;-65
2021/08/31 01:14:22;;;;;;;14.43;10.30;;;;;;;14.70;100.00;97044.63;5041776;28;20186;-63
2021/08/31 01:16:49;;;;;;;15.30;9.63;;;;;;;14.39;100.00;97046.88;5032033;28;20191;-64
2021/08/31 01:19:17;;;;;;;15.03;10.60;;;;;;;14.44;100.00;97046.16;5037357;28;20640;-66
2021/08/31 01:21:42;;;;;;;16.40;11.60;;;;;;;14.33;100.00;97052.31;5017683;28;20186;-68
2021/08/31 01:24:08;;;;;;;15.90;11.27;;;;;;;14.50;100.00;97051.25;5044097;28;20237;-63
2021/08/31 01:26:34;;;;;;;15.10;11.03;;;;;;;14.42;100.00;97050.88;5032179;28;20227;-63
2021/08/31 01:29:00;;;;;;;15.40;11.87;;;;;;;14.60;100.00;97053.22;5032008;28;20179;-64
2021/08/31 01:31:25;;;;;;;19.40;11.87;;;;;;;14.42;100.00;97054.31;5050460;28;20186;-63
2021/08/31 01:33:51;;;;;;;16.80;11.53;;;;;;;14.52;100.00;97053.66;5050160;28;20189;-64
2021/08/31 01:36:24;;;;;;;19.63;12.40;;;;;;;14.43;100.00;97055.91;5047659;28;20236;-64
2021/08/31 01:38:57;;;;;;;17.97;11.73;;;;;;;14.52;100.00;97061.56;5034825;28;20182;-64
2021/08/31 01:41:25;;;;;;;15.07;11.27;;;;;;;14.16;100.00;97058.41;5019194;28;20266;-64
2021/08/31 01:43:51;;;;;;;19.00;11.80;;;;;;;14.37;100.00;97062.16;5040907;28;20603;-64
2021/08/31 01:46:16;;;;;;;17.73;11.80;;;;;;;14.41;100.00;97058.00;5036881;28;20196;-64
2021/08/31 01:48:42;;;;;;;18.93;12.00;;;;;;;14.42;100.00;97056.97;5047655;28;20257;-64
2021/08/31 01:51:07;;;;;;;17.87;11.53;;;;;;;14.41;100.00;97059.84;5034489;28;20279;-63
2021/08/31 01:53:37;;;;;;;18.23;11.80;;;;;;;14.59;100.00;97061.38;5050002;28;20257;-64
2021/08/31 01:56:03;;;;;;;16.27;11.27;;;;;;;14.38;100.00;97062.94;5039532;28;20261;-64
2021/08/31 01:58:29;;;;;;;17.13;11.33;;;;;;;14.62;100.00;97061.69;5044243;28;20212;-64
2021/08/31 02:00:54;;;;;;;15.87;12.27;;;;;;;14.44;100.00;97062.78;5034763;28;20196;-64
2021/08/31 02:03:20;;;;;;;17.30;11.93;;;;;;;14.38;100.00;97060.31;5045956;28;20647;-64
2021/08/31 02:05:46;;;;;;;15.80;11.87;;;;;;;14.70;100.00;97060.47;5046113;28;20193;-68
2021/08/31 02:08:11;;;;;;;18.90;12.20;;;;;;;14.61;100.00;97062.72;5035790;28;20264;-64
2021/08/31 02:10:37;;;;;;;17.73;12.57;;;;;;;14.47;100.00;97062.31;5042856;28;20598;-64
2021/08/31 02:13:03;;;;;;;17.43;12.07;;;;;;;14.25;100.00;97065.91;5033017;28;20612;-63
2021/08/31 02:15:28;;;;;;;18.23;13.40;;;;;;;14.56;100.00;97058.19;5046566;28;20190;-64
2021/08/31 02:17:54;;;;;;;21.23;13.77;;;;;;;14.40;100.00;97066.16;5030263;28;20606;-64
2021/08/31 02:20:19;;;;;;;20.23;12.70;;;;;;;14.39;100.00;97065.34;5035799;28;20284;-64
2021/08/31 02:22:45;;;;;;;16.93;12.30;;;;;;;14.61;100.00;97067.19;5036695;28;20579;-67
2021/08/31 02:25:11;;;;;;;17.90;12.47;;;;;;;14.54;100.00;97065.53;5033341;28;20190;-63
2021/08/31 02:27:37;;;;;;;15.87;11.83;;;;;;;14.54;100.00;97062.91;5031710;28;20634;-63
2021/08/31 02:30:06;;;;;;;16.33;11.77;;;;;;;14.61;100.00;97065.38;5030679;28;20187;-64
2021/08/31 02:32:32;;;;;;;18.00;12.23;;;;;;;14.63;100.00;97063.28;5043076;28;20189;-64
2021/08/31 02:34:57;;;;;;;18.33;12.50;;;;;;;14.76;100.00;97067.41;5039270;28;20190;-64
2021/08/31 02:37:23;;;;;;;17.27;11.60;;;;;;;14.56;100.00;97067.94;5050852;28;20706;-63
2021/08/31 02:39:48;;;;;;;16.50;11.50;;;;;;;14.39;100.00;97075.09;5049659;28;20216;-64
2021/08/31 02:42:14;;;;;;;19.27;12.63;;;;;;;14.36;100.00;97067.66;5039737;28;20268;-64
2021/08/31 02:44:39;;;;;;;18.07;12.57;;;;;;;14.31;100.00;97067.59;5046519;28;20190;-64
2021/08/31 02:47:05;;;;;;;18.97;12.63;;;;;;;14.36;100.00;97067.66;5027884;28;20209;-64
2021/08/31 02:49:30;;;;;;;18.73;11.30;;;;;;;14.51;100.00;97068.69;5040469;28;20186;-64
2021/08/31 02:51:56;;;;;;;17.83;12.30;;;;;;;14.50;100.00;97067.06;5041007;28;20197;-64
2021/08/31 02:54:21;;;;;;;17.73;12.47;;;;;;;14.18;100.00;97076.63;5035882;28;20195;-64
2021/08/31 02:56:47;;;;;;;18.27;12.53;;;;;;;14.14;100.00;97072.88;5039955;28;20185;-68
2021/08/31 02:59:13;;;;;;;18.27;12.43;;;;;;;13.97;100.00;97072.09;5053108;28;20182;-63
2021/08/31 03:02:04;;;;;;;21.00;13.47;;;;;;;14.24;100.00;97066.94;5053072;28;20210;-65
2021/08/31 03:04:25;;;;;;;18.33;12.40;;;;;;;14.20;100.00;97066.66;5037429;28;20225;-63
2021/08/31 03:06:50;;;;;;;22.10;13.90;;;;;;;14.37;100.00;97075.34;5041926;28;20328;-63
2021/08/31 03:09:16;;;;;;;20.07;13.53;;;;;;;14.46;100.00;97078.38;5042172;28;20281;-64
2021/08/31 03:11:41;;;;;;;18.63;13.33;;;;;;;14.44;100.00;97083.06;5031903;28;20173;-63
2021/08/31 03:14:07;;;;;;;23.00;12.93;;;;;;;14.46;100.00;97088.91;5036023;28;20191;-64
2021/08/31 03:16:32;;;;;;;19.93;13.00;;;;;;;14.45;100.00;97082.84;5047268;28;20191;-63
2021/08/31 03:18:57;;;;;;;18.43;11.90;;;;;;;14.29;100.00;97081.00;5040016;28;20180;-63
2021/08/31 03:21:23;;;;;;;19.20;12.37;;;;;;;14.63;100.00;97084.38;5052093;28;20202;-63
2021/08/31 03:23:48;;;;;;;20.00;12.73;;;;;;;14.53;100.00;97086.91;5017648;28;20181;-63
2021/08/31 03:26:14;;;;;;;18.33;12.60;;;;;;;14.49;100.00;97083.94;5040818;28;20178;-64
2021/08/31 03:28:39;;;;;;;19.80;12.13;;;;;;;14.36;100.00;97088.75;5053497;28;20183;-64
2021/08/31 03:31:05;;;;;;;16.73;12.30;;;;;;;14.55;100.00;97084.81;5052063;28;20781;-63
2021/08/31 03:33:30;;;;;;;19.90;12.17;;;;;;;14.61;100.00;97091.75;5036569;28;20229;-63
2021/08/31 03:35:56;;;;;;;21.07;12.33;;;;;;;14.71;100.00;97089.22;5046758;28;20193;-64
2021/08/31 03:38:21;;;;;;;21.70;12.87;;;;;;;14.80;100.00;97090.41;5049695;28;20715;-63
2021/08/31 03:40:46;;;;;;;17.87;11.97;;;;;;;14.79;100.00;97094.09;5035697;28;20628;-67
2021/08/31 03:43:12;;;;;;;15.17;12.10;;;;;;;14.75;100.00;97092.19;5045214;28;20249;-63
2021/08/31 03:45:37;;;;;;;18.40;12.80;;;;;;;14.75;100.00;97097.47;5039059;28;20191;-64
2021/08/31 03:48:03;;;;;;;17.87;12.70;;;;;;;14.69;100.00;97088.69;5035786;28;20705;-64
2021/08/31 03:50:30;;;;;;;16.40;11.97;;;;;;;14.54;100.00;97091.91;5047447;28;20241;-64
2021/08/31 03:52:55;;;;;;;19.63;13.10;;;;;;;14.77;100.00;97087.44;5045691;28;20182;-64
2021/08/31 03:55:20;;;;;;;16.97;11.87;;;;;;;14.69;100.00;97085.25;5035709;28;20496;-64
2021/08/31 03:57:46;;;;;;;14.87;11.10;;;;;;;14.78;100.00;97089.06;5049760;28;20186;-68
2021/08/31 04:00:11;;;;;;;14.83;11.20;;;;;;;14.44;100.00;97093.63;5038947;28;20752;-64
2021/08/31 04:02:38;;;;;;;16.97;11.90;;;;;;;14.43;100.00;97099.97;5042792;28;20182;-64
2021/08/31 04:05:04;;;;;;;15.53;11.70;;;;;;;14.33;100.00;97092.66;5036842;28;20183;-64
2021/08/31 04:07:30;;;;;;;19.17;12.37;;;;;;;14.36;100.00;97100.09;5049488;28;20757;-64
2021/08/31 04:09:55;;;;;;;17.67;12.27;;;;;;;14.51;100.00;97099.53;5034860;28;20198;-64
2021/08/31 04:12:21;;;;;;;17.63;13.03;;;;;;;14.36;100.00;97105.38;5046409;28;20591;-64
2021/08/31 04:14:47;;;;;;;16.97;12.87;;;;;;;14.41;100.00;97108.09;5043439;28;20272;-68
2021/08/31 04:17:12;;;;;;;20.43;12.47;;;;;;;14.49;100.00;97106.88;5037020;28;20712;-64
2021/08/31 04:19:38;;;;;;;16.10;12.00;;;;;;;14.20;100.00;97111.47;5049290;28;20193;-63
2021/08/31 04:22:04;;;;;;;17.07;11.97;;;;;;;14.44;100.00;97115.53;5035415;28;20186;-64
2021/08/31 04:24:29;;;;;;;16.73;12.60;;;;;;;14.50;100.00;97109.28;5032166;28;20264;-64
2021/08/31 04:26:55;;;;;;;20.37;12.60;;;;;;;14.39;100.00;97112.81;5042541;28;20276;-64
2021/08/31 04:29:20;;;;;;;17.40;12.57;;;;;;;14.27;100.00;97122.63;5041470;28;20599;-64
2021/08/31 04:31:46;;;;;;;18.93;12.67;;;;;;;14.37;100.00;97128.09;5049148;28;20189;-66
2021/08/31 04:34:11;;;;;;;20.73;13.23;;;;;;;14.27;100.00;97127.09;5050617;28;20691;-64
2021/08/31 04:36:36;;;;;;;19.30;13.10;;;;;;;14.49;100.00;97122.69;5044963;28;20659;-64
2021/08/31 04:39:02;;;;;;;18.33;12.70;;;;;;;14.46;100.00;97126.63;5041162;28;20650;-64
2021/08/31 04:41:28;;;;;;;23.63;13.27;;;;;;;14.14;100.00;97136.16;5049741;28;20344;-64
2021/08/31 04:43:53;;;;;;;20.87;13.33;;;;;;;13.98;100.00;97135.13;5034107;28;20230;-64
2021/08/31 04:46:18;;;;;;;20.80;13.60;;;;;;;14.06;100.00;97129.44;5052089;28;20271;-65
2021/08/31 04:48:44;;;;;;;18.93;13.23;;;;;;;14.17;100.00;97133.03;5041669;28;20234;-64
2021/08/31 04:51:09;;;;;;;20.77;13.73;;;;;;;14.12;100.00;97127.69;5044965;28;20185;-64
2021/08/31 04:53:35;;;;;;;17.20;12.60;;;;;;;14.28;100.00;97134.78;5019720;28;20193;-64
2021/08/31 04:56:00;;;;;;;18.10;13.07;;;;;;;14.14;100.00;97138.78;5036588;28;20189;-64
2021/08/31 04:58:26;;;;;;;19.43;13.97;;;;;;;14.27;100.00;97142.91;5043498;28;20187;-64
2021/08/31 05:00:51;;;;;;;21.80;13.87;;;;;;;14.38;100.00;97147.34;5040842;28;20659;-68
2021/08/31 05:03:17;;;;;;;22.00;13.90;;;;;;;14.10;100.00;97148.19;5031213;28;20186;-64
2021/08/31 05:05:42;;;;;;;25.30;13.53;;;;;;;14.32;100.00;97146.44;5038018;28;20193;-64
2021/08/31 05:08:08;;;;;;;17.90;12.47;;;;;;;14.23;100.00;97152.34;5046092;28;20767;-63
2021/08/31 05:10:33;;;;;;;18.30;13.57;;;;;;;13.90;100.00;97150.50;5034792;28;20194;-64
2021/08/31 05:12:59;;;;;;;21.43;12.30;;;;;;;13.66;100.00;97155.09;5045097;28;20202;-63
2021/08/31 05:15:24;;;;;;;19.70;13.60;;;;;;;13.78;100.00;97155.84;5040797;28;20190;-64
2021/08/31 05:17:50;;;;;;;21.70;14.57;;;;;;;13.79;100.00;97149.53;5039909;28;20193;-68
2021/08/31 05:20:18;;;;;;;21.67;14.13;;;;;;;13.92;100.00;97157.16;5035020;28;20198;-63
2021/08/31 05:22:43;;;;;;;21.20;13.90;;;;;;;14.24;100.00;97161.88;5047101;28;20190;-63
2021/08/31 05:25:09;;;;;;;23.10;14.17;;;;;;;14.19;100.00;97159.97;5038258;28;20178;-63
2021/08/31 05:27:34;;;;;;;20.93;14.37;;;;;;;14.32;100.00;97161.47;5040669;28;20243;-63
2021/08/31 05:30:00;;;;;;;20.80;14.70;;;;;;;14.05;100.00;97163.94;5043473;28;20542;-64
2021/08/31 05:32:25;;;;;;;22.87;14.37;;;;;;;14.23;100.00;97173.44;5033809;28;20217;-64
2021/08/31 05:34:51;;;;;;;22.67;14.60;;;;;;;14.11;100.00;97174.31;5045788;28;20670;-68
2021/08/31 05:37:16;;;;;;;19.23;13.53;;;;;;;14.04;100.00;97171.03;5038036;28;20186;-63
2021/08/31 05:39:42;;;;;;;20.17;13.10;;;;;;;14.04;100.00;97167.63;5041473;28;20183;-64
2021/08/31 05:42:09;;;;;;;19.70;13.37;;;;;;;14.20;100.00;97173.94;5037466;28;20227;-64
2021/08/31 05:44:37;;;;;;;19.60;13.97;;;;;;;14.26;100.00;97178.25;5040967;28;20228;-64
2021/08/31 05:47:04;;;;;;;19.17;12.63;;;;;;;14.32;100.00;97178.06;5044915;28;20186;-65
2021/08/31 05:49:30;;;;;;;20.93;12.73;;;;;;;14.26;100.00;97183.53;5034941;28;20182;-64
2021/08/31 05:51:56;;;;;;;21.40;12.77;;;;;;;14.27;100.00;97182.47;5041708;28;20181;-64
2021/08/31 05:54:22;;;;;;;16.40;12.13;;;;;;;14.15;100.00;97183.34;5043152;28;20187;-64
2021/08/31 05:56:48;;;;;;;20.47;12.63;;;;;;;14.28;100.00;97187.50;5042486;28;20185;-64
2021/08/31 05:59:14;;;;;;;15.00;11.53;;;;;;;14.15;100.00;97183.34;5049198;28;20196;-64
2021/08/31 06:01:40;;;;;;;18.27;12.60;;;;;;;14.35;100.00;97190.00;5037529;28;20221;-65
2021/08/31 06:04:06;;;;;;;17.53;12.63;;;;;;;14.29;100.00;97186.47;5030007;28;20175;-64
2021/08/31 06:06:31;;;;;;;18.83;11.93;;;;;;;14.48;100.00;97190.50;5038864;28;20201;-64
2021/08/31 06:08:57;;;;;;;16.00;12.20;;;;;;;14.30;100.00;97196.00;5046259;28;20193;-65
2021/08/31 06:11:22;;;;;;;18.80;12.80;;;;;;;13.86;100.00;97195.00;5035566;28;20279;-64
2021/08/31 06:13:48;;;;;;;18.63;11.50;;;;;;;13.96;100.00;97200.44;5049413;28;20182;-64
2021/08/31 06:16:14;;;;;;;15.97;12.10;;;;;;;14.16;100.00;97206.03;5039886;28;21930;-66
2021/08/31 06:18:40;;;;;;;18.90;12.63;;;;;;;14.05;100.00;97201.63;5031631;28;20544;-65
2021/08/31 06:21:05;;;;;;;18.93;12.17;;;;;;;14.10;100.00;97201.72;5036850;28;20197;-64
2021/08/31 06:23:31;;;;;;;14.30;10.73;;;;;;;14.32;100.00;97204.44;5040941;28;20183;-65
2021/08/31 06:25:56;;;;;;;18.07;12.17;;;;;;;14.41;100.00;97202.25;5043712;28;20188;-65
2021/08/31 06:28:21;;;;;;;15.33;11.07;;;;;;;14.30;100.00;97209.19;5034167;28;20187;-65
2021/08/31 06:30:47;;;;;;;16.60;12.50;;;;;;;14.22;100.00;97220.09;5047302;28;20269;-65
2021/08/31 06:33:12;;;;;;;17.37;12.37;;;;;;;14.23;100.00;97216.44;5038300;28;20220;-65
2021/08/31 06:35:38;;;;;;;15.67;11.53;;;;;;;14.23;100.00;97221.69;5039407;28;20644;-64
2021/08/31 06:38:03;;;;;;;18.47;12.27;;;;;;;14.27;100.00;97222.81;5043688;28;20182;-66
2021/08/31 06:40:28;;;;;;;14.87;10.97;;;;;;;14.56;100.00;97224.38;5045002;28;20674;-65
2021/08/31 06:42:54;;;;;;;13.90;10.40;;;;;;;14.66;100.00;97220.28;5049366;28;20269;-66
2021/08/31 06:45:20;;;;;;;12.90;10.57;;;;;;;14.79;100.00;97215.47;5042311;28;20636;-64
2021/08/31 06:47:45;;;;;;;14.20;9.97;;;;;;;14.93;100.00;97219.38;5042742;28;20190;-63
2021/08/31 06:50:15;;;;;;;11.27;8.80;;;;;;;15.19;100.00;97215.25;5034693;28;20878;-63
2021/08/31 06:52:41;;;;;;;12.70;9.47;;;;;;;15.20;100.00;97218.69;5048534;28;20174;-63
2021/08/31 06:55:07;;;;;;;12.30;9.10;;;;;;;15.40;100.00;97219.72;5038643;28;20539;-63
2021/08/31 06:57:33;;;;;;;10.27;8.50;;;;;;;15.23;100.00;97221.63;5040026;28;20189;-63
2021/08/31 06:59:58;;;;;;;9.33;8.10;;;;;;;15.16;100.00;97218.34;5035445;28;20199;-63
2021/08/31 07:02:24;;;;;;;12.27;8.50;;;;;;;14.97;100.00;97232.91;5036209;28;20183;-65
2021/08/31 07:04:49;;;;;;;10.73;8.67;;;;;;;14.95;100.00;97233.13;5031716;28;20187;-66
2021/08/31 07:07:15;;;;;;;11.27;9.10;;;;;;;14.94;100.00;97228.88;5041520;28;20247;-67
2021/08/31 07:09:40;;;;;;;12.17;9.03;;;;;;;15.08;100.00;97225.91;5039922;28;20533;-66
2021/08/31 07:12:06;;;;;;;12.43;9.50;;;;;;;14.85;100.00;97227.72;5036672;28;20552;-67
2021/08/31 07:14:32;;;;;;;11.33;9.00;;;;;;;14.74;100.00;97235.72;5030621;28;20206;-67
2021/08/31 07:16:57;;;;;;;12.40;9.60;;;;;;;14.67;100.00;97232.44;5029458;28;20644;-67
2021/08/31 07:19:22;;;;;;;16.03;9.93;;;;;;;14.54;100.00;97229.09;5049988;28;20186;-66
2021/08/31 07:21:48;;;;;;;10.87;8.47;;;;;;;14.59;100.00;97230.22;5035890;28;20740;-66
2021/08/31 07:24:13;;;;;;;9.77;8.10;;;;;;;14.84;100.00;97238.50;5042035;28;20193;-66
2021/08/31 07:26:38;;;;;;;9.93;8.27;;;;;;;14.71;100.00;97234.34;5044794;28;20269;-66
2021/08/31 07:29:04;;;;;;;11.70;8.57;;;;;;;14.90;100.00;97243.63;5039251;28;20260;-66
2021/08/31 07:31:29;;;;;;;10.67;8.53;;;;;;;14.98;100.00;97245.84;5048720;28;20270;-66
2021/08/31 07:33:55;;;;;;;11.77;8.27;;;;;;;15.22;100.00;97235.84;5039216;28;20194;-67
2021/08/31 07:36:21;;;;;;;10.80;7.97;;;;;;;15.40;100.00;97243.50;5042369;28;20190;-66
2021/08/31 07:38:47;;;;;;;11.63;8.07;;;;;;;15.33;100.00;97242.06;5047849;28;20214;-66
2021/08/31 07:41:12;;;;;;;9.17;7.67;;;;;;;15.43;99.83;97247.50;5039859;28;20202;-66
2021/08/31 07:43:38;;;;;;;9.43;7.50;;;;;;;15.70;98.36;97261.59;5049010;28;20178;-66
2021/08/31 07:46:03;;;;;;;9.43;7.27;;;;;;;15.82;98.41;97258.03;5038581;28;20562;-66
2021/08/31 07:48:29;;;;;;;8.67;6.90;;;;;;;16.08;95.88;97258.03;5049995;28;20607;-66
2021/08/31 07:50:54;;;;;;;10.07;7.00;;;;;;;16.10;95.89;97255.94;5035978;28;20186;-67
2021/08/31 07:53:19;;;;;;;10.20;6.47;;;;;;;15.46;99.09;97260.22;5045063;28;20183;-67
2021/08/31 07:55:45;;;;;;;8.47;7.13;;;;;;;15.48;100.00;97262.59;5046299;28;20538;-66
2021/08/31 07:58:10;;;;;;;9.53;7.27;;;;;;;15.43;99.91;97259.91;5037368;28;20187;-66
2021/08/31 08:00:38;;;;;;;9.60;7.53;;;;;;;15.43;99.45;97267.84;5047915;28;20281;-66
2021/08/31 08:03:03;;;;;;;7.97;7.10;;;;;;;15.72;98.62;97266.59;5044511;28;20183;-67
2021/08/31 08:05:29;;;;;;;9.27;6.90;;;;;;;15.36;99.61;97268.81;5044376;28;20189;-66
2021/08/31 08:07:54;;;;;;;7.77;6.93;;;;;;;15.53;99.34;97270.63;5045956;28;20221;-67
2021/08/31 08:10:19;;;;;;;7.47;6.57;;;;;;;15.73;99.43;97276.13;5043161;28;20227;-67
2021/08/31 08:12:45;;;;;;;7.10;6.40;;;;;;;16.11;98.22;97273.38;5047951;28;20190;-66
2021/08/31 08:15:11;;;;;;;7.87;6.17;;;;;;;16.70;93.23;97278.72;5045265;28;20375;-66
2021/08/31 08:17:36;;;;;;;6.67;5.83;;;;;;;16.71;91.62;97284.81;5045987;28;20198;-66
2021/08/31 08:20:02;;;;;;;6.93;5.97;;;;;;;16.66;90.54;97290.88;5043428;28;20213;-66
2021/08/31 08:22:29;;;;;;;6.63;5.93;;;;;;;16.75;90.12;97288.53;5033110;28;20197;-65
2021/08/31 08:24:54;;;;;;;6.13;5.53;;;;;;;16.50;90.98;97292.53;5038545;28;20658;-66
2021/08/31 08:27:20;;;;;;;7.43;5.73;;;;;;;16.27;91.63;97295.50;5050622;28;20190;-65
2021/08/31 08:29:45;;;;;;;7.03;5.50;;;;;;;16.32;92.34;97292.13;5043214;28;20177;-65
2021/08/31 08:32:12;;;;;;;6.93;6.13;;;;;;;16.45;92.42;97299.63;5036598;28;20182;-66
2021/08/31 08:34:39;;;;;;;7.20;6.17;;;;;;;16.12;92.48;97296.13;5047283;28;20174;-65
2021/08/31 08:37:05;;;;;;;6.80;5.87;;;;;;;16.34;92.15;97298.75;5033614;28;20190;-65
2021/08/31 08:39:32;;;;;;;7.70;6.43;;;;;;;16.26;91.39;97301.03;5036860;28;20243;-65
2021/08/31 08:41:57;;;;;;;6.20;5.57;;;;;;;16.43;91.79;97299.91;5036177;28;20237;-66
2021/08/31 08:44:26;;;;;;;6.20;5.60;;;;;;;16.58;92.09;97296.56;5049656;28;20182;-65
2021/08/31 08:46:51;;;;;;;6.67;5.23;;;;;;;16.67;90.87;97294.28;5034331;28;20179;-65
2021/08/31 08:49:17;;;;;;;6.23;5.63;;;;;;;17.05;87.56;97304.66;5039902;28;20207;-65
2021/08/31 08:51:42;;;;;;;6.53;5.53;;;;;;;17.05;86.55;97304.66;5044529;28;20554;-66
2021/08/31 08:54:09;;;;;;;8.43;4.70;;;;;;;16.63;89.46;97307.22;5051811;28;20205;-66
2021/08/31 08:56:35;;;;;;;5.60;5.00;;;;;;;16.90;87.49;97320.41;5052332;28;20523;-66
2021/08/31 08:59:00;;;;;;;6.23;4.73;;;;;;;16.73;87.05;97327.69;5051984;28;20214;-66
2021/08/31 09:01:51;;;;;;;6.97;4.93;;;;;;;17.05;87.18;97321.31;5047866;28;20200;-66
2021/08/31 09:04:20;;;;;;;5.50;4.97;;;;;;;16.91;87.14;97320.16;5034017;28;20237;-66
2021/08/31 09:06:46;;;;;;;5.90;5.07;;;;;;;16.87;87.89;97326.25;5048351;28;20206;-66
2021/08/31 09:09:12;;;;;;;5.90;5.30;;;;;;;16.96;88.23;97324.72;5036172;28;20185;-66
2021/08/31 09:11:46;;;;;;;5.10;4.60;;;;;;;16.54;89.12;97327.25;5040014;28;20190;-66
2021/08/31 09:14:30;;;;;;;6.13;5.23;;;;;;;16.37;90.79;97334.50;5024921;28;20761;-66
2021/08/31 09:17:08;;;;;;;6.07;5.17;;;;;;;16.57;90.58;97324.88;5032474;28;20266;-66
2021/08/31 09:19:39;;;;;;;5.77;4.83;;;;;;;17.18;87.34;97325.38;5050229;28;20189;-66
2021/08/31 09:22:16;;;;;;;6.17;4.80;;;;;;;17.52;84.38;97323.22;5040050;28;20206;-65
2021/08/31 09:24:59;;;;;;;5.10;4.60;;;;;;;17.78;83.35;97327.59;5048198;28;20260;-66
2021/08/31 09:27:54;;;;;;;7.47;5.40;;;;;;;17.75;80.51;97325.47;5037590;28;20181;-65
2021/08/31 09:30:30;;;;;;;8.13;4.80;;;;;;;17.76;80.75;97329.72;5034045;28;20198;-65
2021/08/31 09:33:15;;;;;;;5.83;4.10;;;;;;;18.36;79.10;97328.31;5044901;28;20714;-66
2021/08/31 09:35:43;;;;;;;5.23;4.20;;;;;;;18.67;76.37;97337.16;5034615;28;20182;-65
2021/08/31 09:38:12;;;;;;;7.90;4.63;;;;;;;18.15;78.09;97334.66;5031365;28;20186;-65
2021/08/31 09:40:44;;;;;;;5.73;4.40;;;;;;;17.98;79.77;97334.84;5049652;28;20248;-66
2021/08/31 09:43:18;;;;;;;4.70;4.28;;;;;;;17.84;78.30;97336.38;5034820;28;20233;-66
2021/08/31 09:45:49;;;;;;;5.20;4.70;;;;;;;17.50;80.26;97330.63;5047709;28;20214;-66
2021/08/31 09:48:18;;;;;;;4.73;4.33;;;;;;;17.76;80.78;97336.88;5038043;28;20182;-66
2021/08/31 09:50:56;;;;;;;5.60;4.60;;;;;;;18.06;78.91;97334.34;5039275;28;20190;-65
2021/08/31 09:53:27;;;;;;;4.50;4.10;;;;;;;18.13;77.20;97329.59;5047783;28;20173;-66
2021/08/31 09:56:01;;;;;;;4.28;3.88;;;;;;;18.59;76.17;97341.13;5046241;28;20178;-67
2021/08/31 09:58:29;;;;;;;4.83;4.00;;;;;;;18.07;76.97;97332.47;5045606;28;20196;-65
2021/08/31 10:00:55;;;;;;;6.27;4.27;;;;;;;17.97;77.40;97332.44;5046564;28;20201;-66
2021/08/31 10:03:22;;;;;;;6.10;4.28;;;;;;;18.36;75.90;97338.94;5034145;28;20721;-65
2021/08/31 10:05:50;;;;;;;5.20;3.80;;;;;;;18.43;75.41;97338.69;5045145;28;20234;-65
2021/08/31 10:08:17;;;;;;;4.43;4.03;;;;;;;18.91;74.43;97343.53;5039303;28;20177;-66
2021/08/31 10:10:44;;;;;;;4.57;3.83;;;;;;;18.26;76.19;97349.53;5033887;28;20686;-66
2021/08/31 10:13:19;;;;;;;5.18;4.57;;;;;;;17.81;77.21;97339.56;5045921;28;20214;-65
2021/08/31 10:15:56;;;;;;;6.80;5.07;;;;;;;17.60;78.80;97341.31;5037489;28;20261;-65
2021/08/31 10:18:24;;;;;;;5.22;3.97;;;;;;;17.69;77.34;97346.91;5039886;28;20270;-65
2021/08/31 10:20:57;;;;;;;5.90;4.33;;;;;;;18.00;75.83;97338.03;5038437;28;20273;-65
2021/08/31 10:23:33;;;;;;;4.97;4.20;;;;;;;17.67;79.05;97351.66;5037439;28;20175;-65
2021/08/31 10:26:44;;;;;;;5.33;4.10;;;;;;;17.45;78.64;97346.50;5045919;28;20186;-65
2021/08/31 10:29:13;;;;;;;5.72;4.65;;;;;;;17.06;81.28;97348.63;5034656;28;20273;-65
2021/08/31 10:31:39;;;;;;;4.80;4.37;;;;;;;17.26;79.64;97354.06;5038779;28;20186;-65
2021/08/31 10:34:38;;;;;;;5.07;4.60;;;;;;;17.67;78.12;97344.53;5038583;28;20187;-66
2021/08/31 10:37:08;;;;;;;4.70;4.30;;;;;;;17.75;78.83;97344.03;5046453;28;20185;-65
2021/08/31 10:39:46;;;;;;;6.37;4.43;;;;;;;17.96;77.97;97346.78;5036280;28;20179;-65
2021/08/31 10:42:23;;;;;;;10.93;4.00;;;;;;;18.41;75.48;97346.91;5045360;28;20573;-66
2021/08/31 10:44:49;;;;;;;5.60;4.30;;;;;;;18.51;72.72;97349.59;5034126;28;20194;-65
2021/08/31 10:47:16;;;;;;;5.90;3.70;;;;;;;18.02;74.13;97345.72;5044792;28;20760;-65
2021/08/31 10:49:57;;;;;;;5.35;3.55;;;;;;;18.60;74.16;97353.38;5031996;28;20190;-65
2021/08/31 10:52:42;;;;;;;4.03;3.35;;;;;;;18.32;72.87;97356.47;5046248;28;20591;-65
2021/08/31 10:55:23;;;;;;;5.07;4.13;;;;;;;18.16;73.58;97349.50;5047416;28;20732;-65
2021/08/31 10:57:50;;;;;;;5.80;4.40;;;;;;;17.64;75.16;97352.19;5042298;28;20209;-65
2021/08/31 11:00:15;;;;;;;4.60;4.05;;;;;;;17.95;75.43;97356.56;5044097;28;20202;-65
2021/08/31 11:02:49;;;;;;;4.67;3.97;;;;;;;17.91;74.52;97352.84;5046537;28;20181;-65
2021/08/31 11:05:20;;;;;;;4.88;4.00;;;;;;;18.29;74.61;97355.09;5037760;28;20182;-65
2021/08/31 11:07:47;;;;;;;4.25;3.80;;;;;;;18.70;72.38;97349.91;5048996;28;20178;-65
2021/08/31 11:10:24;;;;;;;5.00;4.00;;;;;;;18.33;72.16;97354.59;5035731;28;20190;-65
2021/08/31 11:12:50;;;;;;;5.10;3.77;;;;;;;18.60;71.07;97360.53;5034095;28;20213;-66
2021/08/31 11:15:26;;;;;;;4.90;4.00;;;;;;;18.81;71.32;97356.03;5033372;28;20828;-64
2021/08/31 11:17:52;;;;;;;3.63;3.33;;;;;;;18.56;68.96;97362.09;5050986;28;20650;-64
2021/08/31 11:20:23;;;;;;;3.53;3.22;;;;;;;18.49;70.64;97362.34;5045628;28;20198;-65